createdAt,value
2018-11-14T00:00:51.530Z,100.00
2018-11-14T00:03:21.322Z,100.00
2018-11-14T00:05:51.416Z,100.00
2018-11-14T00:08:20.904Z,100.00
2018-11-14T00:10:50.344Z,100.00
2018-11-14T00:13:19.822Z,100.00
2018-11-14T00:15:49.220Z,100.00
2018-11-14T00:18:18.900Z,100.00
2018-11-14T00:20:49.769Z,100.00
2018-11-14T00:23:19.236Z,100.00
2018-11-14T00:25:48.791Z,100.00
2018-11-14T00:28:18.647Z,100.00
2018-11-14T00:30:48.435Z,100.00
2018-11-14T00:33:17.949Z,100.00
2018-11-14T00:35:50.657Z,100.00
2018-11-14T00:38:20.307Z,100.00
2018-11-14T00:40:49.861Z,100.00
2018-11-14T00:43:19.592Z,100.00
2018-11-14T00:45:49.294Z,100.00
2018-11-14T00:48:19.032Z,100.00
2018-11-14T00:50:49.651Z,100.00
2018-11-14T00:53:19.069Z,100.00
2018-11-14T00:55:48.770Z,100.00
2018-11-14T00:58:18.508Z,100.00
2018-11-14T01:00:47.991Z,100.00
2018-11-14T01:03:17.619Z,100.00
2018-11-14T01:05:46.996Z,100.00
2018-11-14T01:08:17.141Z,100.00
2018-11-14T01:10:46.441Z,100.00
2018-11-14T01:13:16.211Z,100.00
2018-11-14T01:15:45.694Z,100.00
2018-11-14T01:18:15.240Z,100.00
2018-11-14T01:20:44.746Z,100.00
2018-11-14T01:23:14.183Z,100.00
2018-11-14T01:25:43.571Z,100.00
2018-11-14T01:28:13.017Z,100.00
2018-11-14T01:30:43.526Z,100.00
2018-11-14T01:33:12.922Z,100.00
2018-11-14T01:35:42.458Z,100.00
2018-11-14T01:38:11.826Z,100.00
2018-11-14T01:40:41.340Z,100.00
2018-11-14T01:43:10.921Z,100.00
2018-11-14T01:45:41.326Z,100.00
2018-11-14T01:48:10.814Z,100.00
2018-11-14T01:50:40.630Z,100.00
2018-11-14T01:53:10.046Z,100.00
2018-11-14T01:55:39.784Z,100.00
2018-11-14T01:58:09.363Z,100.00
2018-11-14T02:00:38.939Z,100.00
2018-11-14T02:03:08.583Z,100.00
2018-11-14T02:05:38.128Z,100.00
2018-11-14T02:08:07.504Z,100.00
2018-11-14T02:10:36.829Z,100.00
2018-11-14T02:13:06.653Z,100.00
2018-11-14T02:15:36.083Z,100.00
2018-11-14T02:18:05.793Z,100.00
2018-11-14T02:20:38.296Z,100.00
2018-11-14T02:23:07.655Z,100.00
2018-11-14T02:25:37.147Z,100.00
2018-11-14T02:28:07.032Z,100.00
2018-11-14T02:30:36.597Z,100.00
2018-11-14T02:33:06.076Z,100.00
2018-11-14T02:35:35.955Z,100.00
2018-11-14T02:38:05.924Z,100.00
2018-11-14T02:40:37.487Z,100.00
2018-11-14T02:43:07.016Z,100.00
2018-11-14T02:45:36.842Z,100.00
2018-11-14T02:48:06.243Z,100.00
2018-11-14T02:50:36.496Z,100.00
2018-11-14T02:53:07.329Z,100.00
2018-11-14T02:55:52.467Z,100.00
2018-11-14T02:58:23.930Z,100.00
2018-11-14T03:00:53.493Z,100.00
2018-11-14T03:03:23.046Z,100.00
2018-11-14T03:05:53.749Z,100.00
2018-11-14T03:08:23.208Z,100.00
2018-11-14T03:10:52.555Z,100.00
2018-11-14T03:13:23.041Z,100.00
2018-11-14T03:15:53.380Z,100.00
2018-11-14T03:18:23.786Z,100.00
2018-11-14T03:20:54.995Z,100.00
2018-11-14T03:23:24.470Z,100.00
2018-11-14T03:25:54.605Z,100.00
2018-11-14T03:28:26.624Z,100.00
2018-11-14T03:30:55.884Z,100.00
2018-11-14T03:33:28.479Z,100.00
2018-11-14T03:36:18.260Z,100.00
2018-11-14T03:38:49.325Z,100.00
2018-11-14T03:41:18.690Z,100.00
2018-11-14T03:43:48.827Z,100.00
2018-11-14T03:46:18.850Z,100.00
2018-11-14T03:48:49.451Z,100.00
2018-11-14T03:51:18.820Z,100.00
2018-11-14T03:53:48.370Z,100.00
2018-11-14T03:56:18.420Z,100.00
2018-11-14T03:58:48.055Z,100.00
2018-11-14T04:01:17.554Z,100.00
2018-11-14T04:03:48.257Z,100.00
2018-11-14T04:06:18.551Z,100.00
2018-11-14T04:08:48.212Z,100.00
2018-11-14T04:11:18.737Z,100.00
2018-11-14T04:13:48.358Z,100.00
2018-11-14T04:16:17.798Z,100.00
2018-11-14T04:18:47.374Z,100.00
2018-11-14T04:21:17.383Z,100.00
2018-11-14T04:23:51.461Z,100.00
2018-11-14T04:26:21.171Z,100.00
2018-11-14T04:28:50.774Z,100.00
2018-11-14T04:31:21.964Z,100.00
2018-11-14T04:33:51.417Z,100.00
2018-11-14T04:36:21.255Z,100.00
2018-11-14T04:38:51.044Z,100.00
2018-11-14T04:41:20.615Z,100.00
2018-11-14T04:43:50.476Z,100.00
2018-11-14T04:46:20.253Z,100.00
2018-11-14T04:48:50.205Z,100.00
2018-11-14T04:51:19.613Z,100.00
2018-11-14T04:53:48.968Z,100.00
2018-11-14T04:56:18.792Z,100.00
2018-11-14T04:58:50.128Z,100.00
2018-11-14T05:01:19.585Z,100.00
2018-11-14T05:03:49.864Z,100.00
2018-11-14T05:06:20.762Z,100.00
2018-11-14T05:08:50.135Z,100.00
2018-11-14T05:11:20.051Z,100.00
2018-11-14T05:13:49.898Z,100.00
2018-11-14T05:16:19.771Z,100.00
2018-11-14T05:18:50.361Z,100.00
2018-11-14T05:21:21.590Z,100.00
2018-11-14T05:23:51.086Z,100.00
2018-11-14T05:26:20.996Z,100.00
2018-11-14T05:28:50.421Z,100.00
2018-11-14T05:31:20.599Z,100.00
2018-11-14T05:33:50.147Z,100.00
2018-11-14T05:36:20.622Z,100.00
2018-11-14T05:38:53.330Z,100.00
2018-11-14T05:41:23.978Z,100.00
2018-11-14T05:43:57.161Z,100.00
2018-11-14T05:46:26.857Z,100.00
2018-11-14T05:48:56.502Z,100.00
2018-11-14T05:51:26.188Z,100.00
2018-11-14T05:53:55.796Z,100.00
2018-11-14T05:56:25.772Z,100.00
2018-11-14T05:58:55.389Z,100.00
2018-11-14T06:01:25.514Z,100.00
2018-11-14T06:03:54.985Z,100.00
2018-11-14T06:06:25.048Z,100.00
2018-11-14T06:08:54.598Z,100.00
2018-11-14T06:11:24.157Z,100.00
2018-11-14T06:13:54.383Z,100.00
2018-11-14T06:16:23.771Z,100.00
2018-11-14T06:18:53.352Z,100.00
2018-11-14T06:21:22.772Z,100.00
2018-11-14T06:23:52.273Z,100.00
2018-11-14T06:26:22.177Z,100.00
2018-11-14T06:28:51.581Z,100.00
2018-11-14T06:31:20.977Z,100.00
2018-11-14T06:33:50.517Z,100.00
2018-11-14T06:36:20.168Z,100.00
2018-11-14T06:38:49.600Z,100.00
2018-11-14T06:41:19.025Z,100.00
2018-11-14T06:43:49.659Z,100.00
2018-11-14T06:46:19.255Z,100.00
2018-11-14T06:48:48.977Z,100.00
2018-11-14T06:51:18.717Z,100.00
2018-11-14T06:53:49.210Z,100.00
2018-11-14T06:56:21.181Z,100.00
2018-11-14T06:58:51.219Z,100.00
2018-11-14T07:01:20.762Z,100.00
2018-11-14T07:03:53.241Z,100.00
2018-11-14T07:06:23.086Z,100.00
2018-11-14T07:08:54.560Z,100.00
2018-11-14T07:11:24.168Z,100.00
2018-11-14T07:13:54.271Z,100.00
2018-11-14T07:16:23.637Z,100.00
2018-11-14T07:18:52.977Z,100.00
2018-11-14T07:21:23.382Z,100.00
2018-11-14T07:23:53.387Z,100.00
2018-11-14T07:26:23.211Z,100.00
2018-11-14T07:28:52.654Z,100.00
2018-11-14T07:31:22.496Z,100.00
2018-11-14T07:33:52.673Z,100.00
2018-11-14T07:36:22.064Z,100.00
2018-11-14T07:38:51.857Z,100.00
2018-11-14T07:41:27.205Z,100.00
2018-11-14T07:43:57.102Z,100.00
2018-11-14T07:46:27.715Z,100.00
2018-11-14T07:48:57.292Z,100.00
2018-11-14T07:51:27.298Z,100.00
2018-11-14T07:53:57.013Z,100.00
2018-11-14T07:56:26.648Z,100.00
2018-11-14T07:58:57.715Z,100.00
2018-11-14T08:01:27.798Z,100.00
2018-11-14T08:03:58.199Z,100.00
2018-11-14T08:06:29.409Z,100.00
2018-11-14T08:08:58.948Z,100.00
2018-11-14T08:11:28.559Z,100.00
2018-11-14T08:13:58.123Z,100.00
2018-11-14T08:16:27.831Z,100.00
2018-11-14T08:18:57.314Z,100.00
2018-11-14T08:21:26.940Z,100.00
2018-11-14T08:23:57.471Z,100.00
2018-11-14T08:26:27.035Z,100.00
2018-11-14T08:28:56.437Z,100.00
2018-11-14T08:31:26.042Z,100.00
2018-11-14T08:33:55.664Z,100.00
2018-11-14T08:36:25.441Z,100.00
2018-11-14T08:38:55.187Z,100.00
2018-11-14T08:41:24.623Z,100.00
2018-11-14T08:43:54.054Z,100.00
2018-11-14T08:46:23.386Z,100.00
2018-11-14T08:48:55.930Z,100.00
2018-11-14T08:51:26.357Z,100.00
2018-11-14T08:53:55.875Z,100.00
2018-11-14T08:56:25.291Z,100.00
2018-11-14T08:58:54.772Z,100.00
2018-11-14T09:01:24.349Z,100.00
2018-11-14T09:03:53.991Z,100.00
2018-11-14T09:06:23.661Z,100.00
2018-11-14T09:08:55.015Z,100.00
2018-11-14T09:11:24.626Z,99.99
2018-11-14T09:13:54.131Z,99.62
2018-11-14T09:16:23.588Z,99.27
2018-11-14T09:18:53.347Z,99.36
2018-11-14T09:21:23.488Z,99.63
2018-11-14T09:23:53.217Z,99.43
2018-11-14T09:26:23.608Z,99.65
2018-11-14T09:28:53.196Z,98.94
2018-11-14T09:31:26.286Z,98.70
2018-11-14T09:33:56.778Z,98.83
2018-11-14T09:36:26.385Z,98.26
2018-11-14T09:38:56.069Z,97.67
2018-11-14T09:41:25.639Z,97.59
2018-11-14T09:43:56.629Z,97.39
2018-11-14T09:46:26.741Z,97.27
2018-11-14T09:48:56.850Z,96.93
2018-11-14T09:51:26.391Z,96.17
2018-11-14T09:53:56.076Z,95.69
2018-11-14T09:56:25.656Z,95.37
2018-11-14T09:58:55.402Z,95.72
2018-11-14T10:01:25.148Z,96.04
2018-11-14T10:03:55.285Z,95.37
2018-11-14T10:06:25.404Z,95.41
2018-11-14T10:08:55.206Z,95.27
2018-11-14T10:11:24.816Z,95.35
2018-11-14T10:13:54.271Z,95.69
2018-11-14T10:16:24.016Z,95.53
2018-11-14T10:18:53.735Z,95.15
2018-11-14T10:21:23.572Z,95.15
2018-11-14T10:24:05.319Z,94.73
2018-11-14T10:26:38.994Z,95.12
2018-11-14T10:29:08.549Z,95.21
2018-11-14T10:31:38.313Z,94.61
2018-11-14T10:34:07.904Z,94.07
2018-11-14T10:36:39.002Z,94.21
2018-11-14T10:39:10.824Z,93.91
2018-11-14T10:41:41.406Z,93.96
2018-11-14T10:44:14.006Z,92.84
2018-11-14T10:46:44.051Z,91.89
2018-11-14T10:49:13.689Z,92.27
2018-11-14T10:51:43.174Z,92.72
2018-11-14T10:54:13.561Z,92.64
2018-11-14T10:56:51.035Z,92.56
2018-11-14T11:02:13.329Z,92.13
2018-11-14T11:07:25.566Z,91.83
2018-11-14T11:10:05.371Z,92.34
2018-11-14T11:12:51.292Z,92.36
2018-11-14T11:15:35.917Z,91.82
2018-11-14T11:18:14.763Z,92.68
2018-11-14T11:20:47.092Z,90.34
2018-11-14T11:23:20.403Z,91.62
2018-11-14T11:25:54.143Z,90.07
2018-11-14T11:28:28.088Z,89.49
2018-11-14T11:30:58.150Z,88.94
2018-11-14T11:33:27.756Z,88.38
2018-11-14T11:35:57.439Z,87.76
2018-11-14T11:38:27.025Z,88.55
2018-11-14T11:40:57.027Z,86.86
2018-11-14T11:43:26.616Z,86.48
2018-11-14T11:45:56.134Z,86.27
2018-11-14T11:48:26.274Z,86.21
2018-11-14T11:50:57.170Z,85.87
2018-11-14T11:53:27.164Z,85.77
2018-11-14T11:55:56.562Z,85.00
2018-11-14T11:58:26.013Z,82.14
2018-11-14T12:00:55.741Z,79.31
2018-11-14T12:03:26.081Z,76.46
2018-11-14T12:05:55.812Z,74.71
2018-11-14T12:08:25.233Z,71.74
2018-11-14T12:10:56.143Z,68.81
2018-11-14T12:13:25.700Z,66.50
2018-11-14T12:15:56.146Z,66.52
2018-11-14T12:18:26.597Z,63.78
2018-11-14T12:20:56.240Z,63.84
2018-11-14T12:23:25.710Z,64.44
2018-11-14T12:25:55.078Z,64.35
2018-11-14T12:28:24.548Z,61.25
2018-11-14T12:30:54.455Z,62.74
2018-11-14T12:33:24.130Z,64.05
2018-11-14T12:35:53.853Z,64.09
2018-11-14T12:38:23.458Z,61.99
2018-11-14T12:40:53.257Z,62.04
2018-11-14T12:43:22.951Z,63.72
2018-11-14T12:45:52.395Z,62.58
2018-11-14T12:48:21.919Z,61.51
2018-11-14T12:50:51.289Z,62.16
2018-11-14T12:53:22.136Z,61.53
2018-11-14T12:55:51.544Z,62.27
2018-11-14T12:58:21.035Z,63.15
2018-11-14T13:00:50.686Z,61.65
2018-11-14T13:03:20.196Z,62.92
2018-11-14T13:05:50.503Z,61.25
2018-11-14T13:08:19.960Z,61.62
2018-11-14T13:10:51.247Z,61.46
2018-11-14T13:13:21.106Z,61.72
2018-11-14T13:15:50.584Z,61.60
2018-11-14T13:18:24.201Z,62.06
2018-11-14T13:20:53.774Z,63.31
2018-11-14T13:23:23.953Z,64.03
2018-11-14T13:25:53.832Z,65.62
2018-11-14T13:28:23.564Z,67.40
2018-11-14T13:30:53.189Z,68.64
2018-11-14T13:33:22.998Z,69.99
2018-11-14T13:35:52.522Z,70.51
2018-11-14T13:38:22.086Z,71.21
2018-11-14T13:40:51.529Z,71.56
2018-11-14T13:43:21.219Z,72.70
2018-11-14T13:45:50.971Z,73.26
2018-11-14T13:48:21.231Z,73.65
2018-11-14T13:50:51.119Z,73.42
2018-11-14T13:53:20.849Z,73.30
2018-11-14T13:55:50.322Z,73.92
2018-11-14T13:58:19.823Z,73.75
2018-11-14T14:00:49.493Z,73.57
2018-11-14T14:03:18.933Z,73.06
2018-11-14T14:05:48.370Z,73.65
2018-11-14T14:08:18.262Z,73.74
2018-11-14T14:10:48.245Z,74.34
2018-11-14T14:13:18.039Z,73.88
2018-11-14T14:15:47.612Z,73.94
2018-11-14T14:18:17.055Z,74.97
2018-11-14T14:20:46.661Z,73.68
2018-11-14T14:23:16.740Z,75.13
2018-11-14T14:25:46.316Z,75.30
2018-11-14T14:28:16.420Z,74.17
2018-11-14T14:30:45.976Z,74.73
2018-11-14T14:33:16.316Z,75.12
2018-11-14T14:35:45.707Z,74.68
2018-11-14T14:38:15.147Z,75.44
2018-11-14T14:40:45.602Z,76.04
2018-11-14T14:43:15.169Z,76.04
2018-11-14T14:45:45.113Z,75.97
2018-11-14T14:48:15.667Z,76.13
2018-11-14T14:50:45.282Z,76.34
2018-11-14T14:53:15.070Z,76.77
2018-11-14T14:55:44.717Z,76.58
2018-11-14T14:58:14.319Z,76.57
2018-11-14T15:00:43.832Z,76.87
2018-11-14T15:03:13.242Z,76.74
2018-11-14T15:05:42.694Z,76.61
2018-11-14T15:08:12.168Z,76.91
2018-11-14T15:10:41.572Z,77.25
2018-11-14T15:13:11.156Z,78.18
2018-11-14T15:15:41.158Z,77.81
2018-11-14T15:18:10.564Z,77.32
2018-11-14T15:20:40.875Z,77.30
2018-11-14T15:23:10.173Z,77.19
2018-11-14T15:25:39.755Z,77.52
2018-11-14T15:28:09.096Z,78.13
2018-11-14T15:30:38.837Z,78.60
2018-11-14T15:33:08.173Z,79.24
2018-11-14T15:35:38.525Z,79.28
2018-11-14T15:38:08.073Z,79.21
2018-11-14T15:40:38.860Z,79.87
2018-11-14T15:43:08.661Z,79.68
2018-11-14T15:45:39.298Z,79.91
2018-11-14T15:48:09.144Z,80.31
2018-11-14T15:50:40.457Z,80.32
2018-11-14T15:53:10.165Z,80.43
2018-11-14T15:55:39.986Z,80.19
2018-11-14T15:58:09.553Z,80.37
2018-11-14T16:00:39.413Z,80.97
2018-11-14T16:03:09.144Z,81.11
2018-11-14T16:05:38.528Z,80.98
2018-11-14T16:08:07.840Z,81.56
2018-11-14T16:10:37.225Z,81.45
2018-11-14T16:13:07.255Z,81.65
2018-11-14T16:15:37.671Z,82.00
2018-11-14T16:18:07.530Z,81.91
2018-11-14T16:20:37.183Z,81.93
2018-11-14T16:23:07.911Z,82.15
2018-11-14T16:25:37.525Z,81.98
2018-11-14T16:28:07.644Z,82.11
2018-11-14T16:30:38.011Z,82.38
2018-11-14T16:33:08.660Z,82.58
2018-11-14T16:35:39.029Z,82.97
2018-11-14T16:38:08.613Z,83.43
2018-11-14T16:40:38.545Z,83.74
2018-11-14T16:43:09.504Z,84.15
2018-11-14T16:45:38.974Z,84.26
2018-11-14T16:48:08.800Z,84.31
2018-11-14T16:50:38.868Z,84.06
2018-11-14T16:53:08.386Z,83.90
2018-11-14T16:55:37.937Z,84.37
2018-11-14T16:58:07.634Z,84.62
2018-11-14T17:00:37.253Z,84.83
2018-11-14T17:03:06.846Z,85.32
2018-11-14T17:05:36.888Z,85.49
2018-11-14T17:08:06.911Z,85.35
2018-11-14T17:10:36.331Z,85.80
2018-11-14T17:13:06.400Z,86.39
2018-11-14T17:15:36.071Z,86.50
2018-11-14T17:18:07.256Z,86.78
2018-11-14T17:20:36.904Z,86.97
2018-11-14T17:23:07.650Z,87.21
2018-11-14T17:25:37.499Z,87.51
2018-11-14T17:28:07.171Z,87.68
2018-11-14T17:30:36.459Z,87.84
2018-11-14T17:33:06.538Z,87.44
2018-11-14T17:35:36.122Z,87.30
2018-11-14T17:38:05.869Z,87.48
2018-11-14T17:40:36.315Z,87.54
2018-11-14T17:43:05.863Z,88.09
2018-11-14T17:45:35.699Z,88.11
2018-11-14T17:48:05.916Z,88.66
2018-11-14T17:50:35.536Z,88.54
2018-11-14T17:53:05.228Z,88.01
2018-11-14T17:55:34.695Z,88.15
2018-11-14T17:58:03.932Z,88.36
2018-11-14T18:00:33.540Z,88.61
2018-11-14T18:03:03.253Z,88.39
2018-11-14T18:05:33.270Z,88.54
2018-11-14T18:08:02.919Z,89.03
2018-11-14T18:10:32.844Z,88.78
2018-11-14T18:13:03.348Z,89.08
2018-11-14T18:15:33.086Z,89.10
2018-11-14T18:18:02.442Z,89.28
2018-11-14T18:20:32.998Z,89.44
2018-11-14T18:23:02.564Z,89.41
2018-11-14T18:25:32.209Z,89.52
2018-11-14T18:28:01.562Z,89.84
2018-11-14T18:30:31.882Z,89.60
2018-11-14T18:33:05.545Z,90.39
2018-11-14T18:35:35.203Z,90.33
2018-11-14T18:38:05.544Z,90.49
2018-11-14T18:40:35.746Z,90.42
2018-11-14T18:43:04.981Z,91.00
2018-11-14T18:45:35.644Z,90.60
2018-11-14T18:48:05.878Z,91.04
2018-11-14T18:50:35.527Z,91.18
2018-11-14T18:53:05.574Z,91.30
2018-11-14T18:55:35.809Z,91.31
2018-11-14T18:58:05.802Z,90.92
2018-11-14T19:00:36.131Z,91.38
2018-11-14T19:03:06.572Z,91.95
2018-11-14T19:05:36.343Z,91.60
2018-11-14T19:08:06.014Z,91.61
2018-11-14T19:10:35.715Z,91.74
2018-11-14T19:13:05.608Z,91.88
2018-11-14T19:15:36.618Z,92.13
2018-11-14T19:18:06.683Z,92.20
2018-11-14T19:20:36.460Z,92.09
2018-11-14T19:23:06.842Z,92.56
2018-11-14T19:25:37.702Z,92.40
2018-11-14T19:28:07.517Z,92.59
2018-11-14T19:30:38.006Z,92.41
2018-11-14T19:33:08.692Z,92.44
2018-11-14T19:35:37.937Z,92.60
2018-11-14T19:38:07.378Z,92.34
2018-11-14T19:40:37.744Z,92.66
2018-11-14T19:43:08.835Z,92.22
2018-11-14T19:45:39.244Z,92.31
2018-11-14T19:48:08.905Z,92.71
2018-11-14T19:50:39.055Z,92.67
2018-11-14T19:53:09.089Z,92.48
2018-11-14T19:55:38.932Z,92.68
2018-11-14T19:58:08.320Z,92.91
2018-11-14T20:00:39.065Z,92.76
2018-11-14T20:03:09.416Z,92.99
2018-11-14T20:05:39.468Z,93.12
2018-11-14T20:08:08.982Z,92.75
2018-11-14T20:10:39.493Z,92.56
2018-11-14T20:13:08.856Z,93.29
2018-11-14T20:15:38.736Z,93.50
2018-11-14T20:18:08.911Z,93.08
2018-11-14T20:20:39.679Z,93.21
2018-11-14T20:23:09.025Z,93.28
2018-11-14T20:25:38.610Z,93.69
2018-11-14T20:28:10.228Z,93.37
2018-11-14T20:30:40.603Z,93.30
2018-11-14T20:33:12.255Z,93.22
2018-11-14T20:35:41.631Z,93.21
2018-11-14T20:38:11.012Z,93.07
2018-11-14T20:40:41.958Z,92.98
2018-11-14T20:43:11.516Z,93.33
2018-11-14T20:45:42.636Z,93.51
2018-11-14T20:48:12.021Z,93.47
2018-11-14T20:50:42.789Z,93.05
2018-11-14T20:53:12.143Z,93.78
2018-11-14T20:55:41.960Z,93.85
2018-11-14T20:58:11.338Z,93.78
2018-11-14T21:00:41.360Z,93.93
2018-11-14T21:03:11.142Z,94.45
2018-11-14T21:05:40.900Z,94.79
2018-11-14T21:08:10.615Z,94.98
2018-11-14T21:10:43.043Z,95.39
2018-11-14T21:13:12.649Z,95.39
2018-11-14T21:15:42.350Z,95.54
2018-11-14T21:18:12.076Z,96.08
2018-11-14T21:20:41.951Z,96.25
2018-11-14T21:23:11.901Z,96.35
2018-11-14T21:25:42.168Z,96.69
2018-11-14T21:28:13.156Z,96.92
2018-11-14T21:30:42.960Z,97.29
2018-11-14T21:33:12.575Z,97.39
2018-11-14T21:35:42.228Z,97.87
2018-11-14T21:38:11.751Z,97.77
2018-11-14T21:40:42.093Z,98.10
2018-11-14T21:43:11.848Z,98.58
2018-11-14T21:45:41.225Z,98.79
2018-11-14T21:48:14.253Z,98.84
2018-11-14T21:50:45.443Z,99.10
2018-11-14T21:53:15.859Z,99.27
2018-11-14T21:55:45.454Z,99.17
2018-11-14T21:58:14.912Z,99.63
2018-11-14T22:00:44.493Z,99.45
2018-11-14T22:03:14.301Z,99.76
2018-11-14T22:05:44.027Z,100.00
2018-11-14T22:08:14.552Z,99.82
2018-11-14T22:10:43.888Z,100.00
2018-11-14T22:13:13.453Z,100.00
2018-11-14T22:15:42.918Z,100.00
2018-11-14T22:18:12.432Z,100.00
2018-11-14T22:20:41.814Z,100.00
2018-11-14T22:23:11.214Z,100.00
2018-11-14T22:25:40.571Z,100.00
2018-11-14T22:28:10.152Z,100.00
2018-11-14T22:30:39.371Z,100.00
2018-11-14T22:33:09.741Z,100.00
2018-11-14T22:35:39.301Z,100.00
2018-11-14T22:38:09.579Z,100.00
2018-11-14T22:40:39.139Z,100.00
2018-11-14T22:43:08.581Z,100.00
2018-11-14T22:45:38.187Z,100.00
2018-11-14T22:48:07.960Z,100.00
2018-11-14T22:50:37.250Z,100.00
2018-11-14T22:53:07.911Z,100.00
2018-11-14T22:55:37.370Z,100.00
2018-11-14T22:58:07.135Z,100.00
2018-11-14T23:00:41.667Z,100.00
2018-11-14T23:03:12.197Z,100.00
2018-11-14T23:05:41.982Z,100.00
2018-11-14T23:08:11.422Z,100.00
2018-11-14T23:10:41.398Z,100.00
2018-11-14T23:13:10.747Z,100.00
2018-11-14T23:15:40.249Z,100.00
2018-11-14T23:18:09.604Z,100.00
2018-11-14T23:20:39.506Z,100.00
2018-11-14T23:23:09.525Z,100.00
2018-11-14T23:25:39.090Z,100.00
2018-11-14T23:28:08.772Z,100.00
2018-11-14T23:30:38.479Z,100.00
2018-11-14T23:33:07.923Z,100.00
2018-11-14T23:35:37.467Z,100.00
2018-11-14T23:38:07.338Z,100.00
2018-11-14T23:40:42.447Z,100.00
2018-11-14T23:43:17.792Z,100.00
2018-11-14T23:45:47.263Z,100.00
2018-11-14T23:48:17.285Z,100.00
2018-11-14T23:50:46.906Z,100.00
2018-11-14T23:53:16.179Z,100.00
2018-11-14T23:55:45.642Z,100.00
2018-11-14T23:58:14.911Z,100.00
